HSKO2: Arkansas River, Haskell, OK

Data processed at Sat Mar 10 2018 23:14


All information presented herein is the property of the government of the United States of America and may be revised or deleted at any time without prior notice.
Dissemination of this information without the expressed written consent of the Public Affairs Office, Tulsa District U.S. Army Corps of Engineers is strictly prohibited.
These data are gathered electronically and, as presented, have not undergone any form of quality control. These data are not guaranteed to be valid or correct.
Go to home page.
Go to station list.

Upstream stations:

Downstream station:
Previous Day
Next Day
Current Day
    
SHEF ID:       HSKO2     Arkansas River near Haskell, OK
STATION TYPE:  

               PRECIP     STAGE  STAGE(2)  RIV-FLOW  BAT-LOAD
                   in        ft        ft       cfs      volt
              Ccp-Rev   Ccp-Rev   Ccp-Rev   Ccp-Rev   Ccp-Rev
(US/Central)
03/08 00:00      0.00      4.25      4.22      2644     12.49
03/08 01:00      0.00      4.15      4.12      2402     12.49
03/08 02:00      0.00      4.05      4.03      2164     12.41
03/08 03:00      0.00      3.96      3.90      1956     12.41
03/08 04:00      0.00      3.87      3.80      1748     12.41
03/08 05:00      0.00      3.78      3.76      1539     12.33
03/08 06:00      0.00      3.69      3.67      1331     12.33
03/08 07:00      0.00      3.62      3.60      1173     12.33
03/08 08:00      0.00      3.54      3.53      1004     12.49
03/08 09:00      0.00      3.46      3.47       855     13.44
03/08 10:00      0.00      3.40      3.41       755     13.53
03/08 11:00      0.00      3.34      3.37       681     13.53
03/08 12:00      0.00      3.30      3.32       635     13.53
03/08 13:00      0.00      3.27      3.31       602     13.53
03/08 14:00      0.00      3.31      3.33       646     13.53
03/08 15:00      0.00      3.41      3.41       771     13.53
03/08 16:00      0.00      3.48      3.54       891     13.53
03/08 17:00      0.00      3.65      3.64      1240     13.53
03/08 18:00      0.00      3.74      3.73      1448     13.29
03/08 19:00      0.00      3.80      3.78      1586     13.21
03/08 20:00      0.00      3.83      3.82      1656     12.73
03/08 21:00      0.00      3.85      3.85      1702     12.65
03/08 22:00      0.00      3.90      3.89      1818     12.57
03/08 23:00      0.00      3.95      3.95      1933     12.57